createdAt,value
2018-12-22T00:02:25.999Z,62.14
2018-12-22T00:05:27.760Z,62.25
2018-12-22T00:08:29.641Z,62.05
2018-12-22T00:11:31.416Z,61.85
2018-12-22T00:14:34.393Z,61.65
2018-12-22T00:17:36.121Z,61.83
2018-12-22T00:20:37.960Z,61.44
2018-12-22T00:23:39.773Z,60.94
2018-12-22T00:26:41.618Z,60.67
2018-12-22T00:29:43.357Z,60.22
2018-12-22T00:32:45.123Z,60.37
2018-12-22T00:35:46.867Z,60.32
2018-12-22T00:38:48.717Z,60.42
2018-12-22T00:41:50.437Z,60.55
2018-12-22T00:44:52.315Z,60.39
2018-12-22T00:47:54.160Z,59.94
2018-12-22T00:50:56.298Z,59.50
2018-12-22T00:53:58.074Z,59.31
2018-12-22T00:56:59.857Z,59.68
2018-12-22T01:00:01.671Z,59.42
2018-12-22T01:03:03.591Z,58.88
2018-12-22T01:06:05.332Z,58.90
2018-12-22T01:09:07.321Z,58.69
2018-12-22T01:12:09.795Z,58.84
2018-12-22T01:15:11.615Z,58.93
2018-12-22T01:18:13.357Z,58.77
2018-12-22T01:21:15.165Z,58.58
2018-12-22T01:24:16.915Z,58.70
2018-12-22T01:27:18.691Z,58.85
2018-12-22T01:30:20.461Z,58.76
2018-12-22T01:33:22.298Z,58.63
2018-12-22T01:36:24.131Z,58.49
2018-12-22T01:39:26.044Z,58.29
2018-12-22T01:42:27.894Z,57.94
2018-12-22T01:45:29.702Z,57.31
2018-12-22T01:48:31.538Z,57.79
2018-12-22T01:51:33.412Z,57.42
2018-12-22T01:54:35.313Z,57.38
2018-12-22T01:57:37.202Z,57.31
2018-12-22T02:00:39.070Z,57.44
2018-12-22T02:03:40.824Z,57.40
2018-12-22T02:06:42.729Z,57.07
2018-12-22T02:09:44.541Z,57.59
2018-12-22T02:12:46.350Z,57.52
2018-12-22T02:15:48.111Z,57.85
2018-12-22T02:18:49.921Z,57.74
2018-12-22T02:21:51.739Z,57.44
2018-12-22T02:24:53.552Z,57.29
2018-12-22T02:27:55.312Z,57.31
2018-12-22T02:30:57.200Z,56.77
2018-12-22T02:33:58.983Z,56.71
2018-12-22T02:37:00.823Z,56.98
2018-12-22T02:40:05.059Z,56.49
2018-12-22T02:43:06.855Z,56.85
2018-12-22T02:46:08.660Z,56.36
2018-12-22T02:49:10.531Z,56.26
2018-12-22T02:52:13.479Z,56.32
2018-12-22T02:55:15.315Z,56.23
2018-12-22T02:58:17.060Z,56.53
2018-12-22T03:01:18.971Z,55.91
2018-12-22T03:04:20.778Z,56.52
2018-12-22T03:07:22.663Z,55.92
2018-12-22T03:10:24.503Z,55.72
2018-12-22T03:13:26.383Z,55.42
2018-12-22T03:16:28.152Z,54.80
2018-12-22T03:19:29.955Z,54.20
2018-12-22T03:22:31.762Z,54.27
2018-12-22T03:25:33.592Z,53.81
2018-12-22T03:28:35.426Z,53.26
2018-12-22T03:31:37.242Z,53.31
2018-12-22T03:34:38.983Z,53.42
2018-12-22T03:37:40.891Z,53.40
2018-12-22T03:40:42.772Z,53.01
2018-12-22T03:43:44.722Z,53.32
2018-12-22T03:46:47.829Z,53.65
2018-12-22T03:49:49.702Z,53.03
2018-12-22T03:52:51.467Z,53.56
2018-12-22T03:55:53.239Z,53.50
2018-12-22T03:58:54.981Z,53.83
2018-12-22T04:01:56.927Z,54.23
2018-12-22T04:04:58.738Z,53.85
2018-12-22T04:08:00.573Z,53.96
2018-12-22T04:11:02.610Z,53.81
2018-12-22T04:14:04.504Z,53.48
2018-12-22T04:17:06.351Z,53.05
2018-12-22T04:20:08.351Z,52.55
2018-12-22T04:23:10.152Z,52.89
2018-12-22T04:26:11.966Z,52.81
2018-12-22T04:29:13.810Z,52.09
2018-12-22T04:32:15.541Z,52.18
2018-12-22T04:35:17.287Z,52.17
2018-12-22T04:38:19.063Z,52.02
2018-12-22T04:41:20.909Z,52.54
2018-12-22T04:44:22.939Z,52.36
2018-12-22T04:47:24.768Z,52.00
2018-12-22T04:50:26.612Z,52.28
2018-12-22T04:53:28.428Z,51.97
2018-12-22T04:56:30.241Z,51.85
2018-12-22T04:59:32.056Z,52.08
2018-12-22T05:02:35.198Z,51.78
2018-12-22T05:05:37.036Z,51.75
2018-12-22T05:08:39.333Z,51.97
2018-12-22T05:11:41.285Z,51.78
2018-12-22T05:14:43.139Z,52.45
2018-12-22T05:17:44.925Z,52.04
2018-12-22T05:20:46.678Z,51.56
2018-12-22T05:23:48.587Z,51.84
2018-12-22T05:26:51.293Z,51.91
2018-12-22T05:29:53.171Z,52.31
2018-12-22T05:32:54.976Z,51.98
2018-12-22T05:35:56.739Z,52.17
2018-12-22T05:38:58.488Z,51.72
2018-12-22T05:42:00.298Z,51.92
2018-12-22T05:45:02.164Z,51.89
2018-12-22T05:48:03.966Z,51.90
2018-12-22T05:51:05.793Z,51.77
2018-12-22T05:54:07.593Z,52.16
2018-12-22T05:57:09.433Z,51.25
2018-12-22T06:00:11.333Z,51.60
2018-12-22T06:03:13.217Z,51.42
2018-12-22T06:06:14.996Z,51.39
2018-12-22T06:09:16.835Z,51.23
2018-12-22T06:12:18.696Z,51.39
2018-12-22T06:15:20.470Z,51.57
2018-12-22T06:18:22.450Z,51.80
2018-12-22T06:21:24.261Z,51.43
2018-12-22T06:24:26.052Z,51.86
2018-12-22T06:27:27.990Z,51.92
2018-12-22T06:30:29.765Z,52.61
2018-12-22T06:33:31.548Z,52.59
2018-12-22T06:36:33.305Z,52.60
2018-12-22T06:39:35.229Z,52.46
2018-12-22T06:42:43.479Z,52.15
2018-12-22T06:45:45.363Z,51.81
2018-12-22T06:48:47.327Z,52.02
2018-12-22T06:51:49.171Z,52.09
2018-12-22T06:54:51.153Z,52.43
2018-12-22T06:57:53.005Z,52.31
2018-12-22T07:00:54.856Z,52.30
2018-12-22T07:03:56.727Z,52.79
2018-12-22T07:06:58.526Z,52.69
2018-12-22T07:10:00.559Z,52.93
2018-12-22T07:13:02.466Z,53.29
2018-12-22T07:16:04.305Z,53.28
2018-12-22T07:19:06.087Z,53.67
2018-12-22T07:22:08.016Z,53.20
2018-12-22T07:25:09.892Z,53.02
2018-12-22T07:28:11.799Z,53.28
2018-12-22T07:31:13.778Z,53.12
2018-12-22T07:34:15.670Z,53.53
2018-12-22T07:37:17.543Z,53.25
2018-12-22T07:40:19.385Z,53.32
2018-12-22T07:43:21.209Z,53.37
2018-12-22T07:46:23.476Z,53.43
2018-12-22T07:49:25.284Z,53.22
2018-12-22T07:52:27.073Z,53.40
2018-12-22T07:55:28.826Z,53.23
2018-12-22T07:58:30.748Z,53.69
2018-12-22T08:01:32.597Z,53.14
2018-12-22T08:04:34.469Z,53.09
2018-12-22T08:07:36.509Z,52.85
2018-12-22T08:10:38.557Z,52.79
2018-12-22T08:13:40.374Z,53.24
2018-12-22T08:16:42.220Z,53.06
2018-12-22T08:19:43.994Z,53.15
2018-12-22T08:22:45.889Z,53.49
2018-12-22T08:25:47.694Z,53.52
2018-12-22T08:28:49.796Z,53.43
2018-12-22T08:31:51.552Z,54.04
2018-12-22T08:34:53.349Z,53.46
2018-12-22T08:37:55.167Z,53.75
2018-12-22T08:40:57.046Z,53.52
2018-12-22T08:43:59.006Z,53.85
2018-12-22T08:47:00.843Z,53.79
2018-12-22T08:50:08.942Z,53.69
2018-12-22T08:53:07.086Z,54.49
2018-12-22T08:56:08.879Z,53.92
2018-12-22T08:59:10.702Z,54.40
2018-12-22T09:02:12.619Z,53.96
2018-12-22T09:05:14.381Z,53.96
2018-12-22T09:08:16.159Z,54.07
2018-12-22T09:11:17.908Z,53.83
2018-12-22T09:14:19.747Z,53.90
2018-12-22T09:17:21.562Z,53.54
2018-12-22T09:20:23.506Z,53.94
2018-12-22T09:23:25.354Z,53.90
2018-12-22T09:26:27.122Z,53.75
2018-12-22T09:29:28.973Z,53.83
2018-12-22T09:32:31.065Z,53.35
2018-12-22T09:35:32.876Z,53.47
2018-12-22T09:38:34.709Z,53.78
2018-12-22T09:41:36.462Z,53.42
2018-12-22T09:44:38.334Z,53.44
2018-12-22T09:47:40.191Z,53.35
2018-12-22T09:50:42.296Z,52.98
2018-12-22T09:53:44.040Z,53.30
2018-12-22T09:56:45.805Z,53.39
2018-12-22T09:59:47.751Z,53.33
2018-12-22T10:02:49.548Z,53.10
2018-12-22T10:05:51.412Z,53.34
2018-12-22T10:08:53.171Z,53.34
2018-12-22T10:11:55.121Z,53.28
2018-12-22T10:14:57.141Z,53.59
2018-12-22T10:17:59.099Z,53.39
2018-12-22T10:21:00.944Z,53.69
2018-12-22T10:24:02.736Z,53.74
2018-12-22T10:27:04.518Z,54.02
2018-12-22T10:30:08.610Z,54.08
2018-12-22T10:33:10.500Z,54.17
2018-12-22T10:36:12.513Z,54.41
2018-12-22T10:39:14.361Z,54.35
2018-12-22T10:42:16.203Z,54.55
2018-12-22T10:45:17.970Z,54.27
2018-12-22T10:48:19.831Z,54.34
2018-12-22T10:51:24.379Z,54.57
2018-12-22T10:54:25.692Z,54.49
2018-12-22T10:57:27.502Z,54.55
2018-12-22T11:00:29.635Z,54.05
2018-12-22T11:03:32.168Z,54.28
2018-12-22T11:06:34.193Z,54.33
2018-12-22T11:09:36.004Z,54.23
2018-12-22T11:12:37.922Z,54.05
2018-12-22T11:15:39.745Z,53.77
2018-12-22T11:18:41.704Z,53.69
2018-12-22T11:21:43.678Z,54.13
2018-12-22T11:24:45.560Z,54.17
2018-12-22T11:27:47.435Z,53.81
2018-12-22T11:30:50.431Z,53.83
2018-12-22T11:33:52.304Z,53.85
2018-12-22T11:36:54.046Z,53.93
2018-12-22T11:39:55.860Z,54.28
2018-12-22T11:42:57.696Z,53.94
2018-12-22T11:46:00.394Z,54.54
2018-12-22T11:49:02.276Z,54.51
2018-12-22T11:52:04.277Z,54.22
2018-12-22T11:55:07.062Z,54.59
2018-12-22T11:58:08.965Z,54.72
2018-12-22T12:01:10.757Z,54.49
2018-12-22T12:04:12.575Z,55.04
2018-12-22T12:07:14.436Z,54.91
2018-12-22T12:10:16.352Z,54.87
2018-12-22T12:13:18.170Z,55.35
2018-12-22T12:16:21.147Z,55.34
2018-12-22T12:19:23.162Z,55.65
2018-12-22T12:22:25.064Z,56.05
2018-12-22T12:25:27.034Z,56.17
2018-12-22T12:28:28.906Z,56.94
2018-12-22T12:31:30.694Z,57.17
2018-12-22T12:34:32.600Z,57.36
2018-12-22T12:37:34.534Z,57.75
2018-12-22T12:40:36.389Z,57.60
2018-12-22T12:43:38.506Z,57.92
2018-12-22T12:46:40.587Z,58.04
2018-12-22T12:49:42.667Z,58.32
2018-12-22T12:52:44.682Z,58.71
2018-12-22T12:55:46.624Z,58.80
2018-12-22T12:58:48.911Z,58.72
2018-12-22T13:02:00.791Z,59.00
2018-12-22T13:04:56.243Z,58.70
2018-12-22T13:07:58.180Z,58.78
2018-12-22T13:11:00.083Z,59.02
2018-12-22T13:14:02.043Z,59.15
2018-12-22T13:17:04.113Z,59.08
2018-12-22T13:20:10.032Z,59.29
2018-12-22T13:23:12.102Z,59.59
2018-12-22T13:26:14.224Z,59.46
2018-12-22T13:29:16.288Z,59.22
2018-12-22T13:32:18.153Z,59.82
2018-12-22T13:35:20.034Z,60.08
2018-12-22T13:38:21.773Z,60.21
2018-12-22T13:41:23.543Z,60.27
2018-12-22T13:44:25.588Z,60.25
2018-12-22T13:47:27.677Z,60.36
2018-12-22T13:50:29.773Z,60.07
2018-12-22T13:53:31.958Z,60.13
2018-12-22T13:56:34.064Z,60.08
2018-12-22T13:59:35.909Z,60.18
2018-12-22T14:02:37.746Z,60.05
2018-12-22T14:05:39.544Z,60.35
2018-12-22T14:08:41.374Z,60.05
2018-12-22T14:11:43.322Z,60.19
2018-12-22T14:14:45.239Z,60.40
2018-12-22T14:17:55.113Z,60.28
2018-12-22T14:20:56.927Z,60.55
2018-12-22T14:24:03.911Z,60.68
2018-12-22T14:27:05.971Z,60.61
2018-12-22T14:30:11.188Z,60.76
2018-12-22T14:33:12.926Z,60.91
2018-12-22T14:36:14.806Z,60.81
2018-12-22T14:39:16.593Z,60.32
2018-12-22T14:42:18.400Z,60.55
2018-12-22T14:45:20.212Z,60.61
2018-12-22T14:48:22.085Z,60.67
2018-12-22T14:51:23.905Z,60.63
2018-12-22T14:54:25.779Z,60.59
2018-12-22T14:57:28.018Z,60.51
2018-12-22T15:00:29.768Z,60.52
2018-12-22T15:03:31.615Z,60.15
2018-12-22T15:06:34.576Z,59.96
2018-12-22T15:09:36.393Z,60.38
2018-12-22T15:12:38.205Z,61.02
2018-12-22T15:15:40.918Z,61.55
2018-12-22T15:18:42.714Z,61.27
2018-12-22T15:21:44.439Z,61.49
2018-12-22T15:24:46.342Z,61.44
2018-12-22T15:27:48.192Z,61.28
2018-12-22T15:30:50.059Z,60.89
2018-12-22T15:33:52.076Z,60.86
2018-12-22T15:36:53.905Z,60.88
2018-12-22T15:39:55.747Z,60.99
2018-12-22T15:42:57.605Z,60.34
2018-12-22T15:45:59.515Z,60.24
2018-12-22T15:49:01.437Z,60.32
2018-12-22T15:52:03.272Z,60.13
2018-12-22T15:55:07.434Z,59.93
2018-12-22T15:58:09.439Z,59.56
2018-12-22T16:01:11.236Z,59.50
2018-12-22T16:04:13.059Z,59.35
2018-12-22T16:07:15.030Z,59.12
2018-12-22T16:10:16.949Z,58.63
2018-12-22T16:13:20.647Z,58.72
2018-12-22T16:16:22.815Z,58.60
2018-12-22T16:19:24.572Z,58.43
2018-12-22T16:22:26.428Z,58.40
2018-12-22T16:25:28.237Z,58.39
2018-12-22T16:28:30.193Z,58.35
2018-12-22T16:31:32.825Z,57.88
2018-12-22T16:34:35.036Z,57.76
2018-12-22T16:37:36.864Z,57.68
2018-12-22T16:40:38.709Z,57.26
2018-12-22T16:43:40.625Z,57.33
2018-12-22T16:46:42.500Z,56.90
2018-12-22T16:49:44.306Z,57.25
2018-12-22T16:52:46.202Z,56.71
2018-12-22T16:55:48.048Z,56.29
2018-12-22T16:58:50.341Z,56.09
2018-12-22T17:01:52.155Z,56.04
2018-12-22T17:04:54.092Z,55.94
2018-12-22T17:07:55.952Z,55.69
2018-12-22T17:10:58.877Z,55.44
2018-12-22T17:14:00.695Z,55.21
2018-12-22T17:17:02.578Z,55.01
2018-12-22T17:20:08.472Z,54.98
2018-12-22T17:23:26.202Z,54.65
2018-12-22T17:26:29.572Z,54.59
2018-12-22T17:29:31.543Z,54.83
2018-12-22T17:32:33.335Z,54.57
2018-12-22T17:35:35.556Z,54.76
2018-12-22T17:38:37.367Z,54.70
2018-12-22T17:41:39.184Z,54.85
2018-12-22T17:44:40.955Z,54.73
2018-12-22T17:47:42.817Z,54.67
2018-12-22T17:50:44.637Z,54.39
2018-12-22T17:53:46.469Z,54.53
2018-12-22T17:56:48.437Z,54.71
2018-12-22T17:59:51.174Z,54.57
2018-12-22T18:02:53.262Z,54.82
2018-12-22T18:05:55.034Z,54.63
2018-12-22T18:08:56.849Z,54.67
2018-12-22T18:11:58.759Z,54.84
2018-12-22T18:15:00.782Z,54.60
2018-12-22T18:18:02.759Z,54.58
2018-12-22T18:21:04.542Z,54.57
2018-12-22T18:24:06.348Z,54.40
2018-12-22T18:27:08.283Z,54.41
2018-12-22T18:30:11.485Z,54.63
2018-12-22T18:33:13.276Z,54.49
2018-12-22T18:36:15.061Z,54.37
2018-12-22T18:39:17.520Z,54.38
2018-12-22T18:42:19.283Z,54.11
2018-12-22T18:45:21.282Z,54.38
2018-12-22T18:48:23.046Z,54.54
2018-12-22T18:51:25.009Z,54.65
2018-12-22T18:54:26.817Z,54.56
2018-12-22T18:57:28.699Z,54.54
2018-12-22T19:00:30.646Z,54.31
2018-12-22T19:03:32.668Z,54.49
2018-12-22T19:06:34.507Z,54.38
2018-12-22T19:09:36.429Z,54.42
2018-12-22T19:12:38.300Z,54.33
2018-12-22T19:15:40.174Z,54.68
2018-12-22T19:18:42.511Z,54.79
2018-12-22T19:21:44.424Z,54.98
2018-12-22T19:24:46.245Z,54.93
2018-12-22T19:27:48.154Z,55.13
2018-12-22T19:30:50.226Z,54.93
2018-12-22T19:33:53.665Z,55.01
2018-12-22T19:36:55.973Z,55.15
2018-12-22T19:39:57.746Z,54.78
2018-12-22T19:42:59.573Z,55.02
2018-12-22T19:46:01.549Z,54.57
2018-12-22T19:49:03.560Z,54.75
2018-12-22T19:52:05.358Z,54.38
2018-12-22T19:55:07.291Z,54.11
2018-12-22T19:58:09.926Z,54.39
2018-12-22T20:01:12.230Z,54.36
2018-12-22T20:04:14.118Z,54.35
2018-12-22T20:07:16.050Z,54.03
2018-12-22T20:10:17.855Z,53.85
2018-12-22T20:13:19.782Z,53.87
2018-12-22T20:16:21.657Z,53.84
2018-12-22T20:19:23.764Z,53.76
2018-12-22T20:22:25.664Z,53.72
2018-12-22T20:25:27.623Z,53.62
2018-12-22T20:28:29.647Z,53.82
2018-12-22T20:31:31.981Z,53.58
2018-12-22T20:34:34.858Z,53.64
2018-12-22T20:37:37.792Z,54.15
2018-12-22T20:40:40.653Z,54.00
2018-12-22T20:43:43.347Z,54.17
2018-12-22T20:46:45.124Z,54.42
2018-12-22T20:49:46.993Z,54.69
2018-12-22T20:52:48.878Z,54.82
2018-12-22T20:55:50.848Z,55.33
2018-12-22T20:58:52.696Z,55.53
2018-12-22T21:01:55.828Z,55.53
2018-12-22T21:04:57.882Z,55.55
2018-12-22T21:07:59.699Z,55.49
2018-12-22T21:11:01.529Z,55.40
2018-12-22T21:14:04.521Z,55.78
2018-12-22T21:17:06.329Z,55.66
2018-12-22T21:20:08.223Z,55.90
2018-12-22T21:23:10.069Z,55.75
2018-12-22T21:26:11.941Z,55.78
2018-12-22T21:29:13.744Z,56.03
2018-12-22T21:32:15.626Z,56.05
2018-12-22T21:35:17.585Z,56.09
2018-12-22T21:38:19.411Z,56.48
2018-12-22T21:41:21.282Z,56.85
2018-12-22T21:44:23.139Z,56.63
2018-12-22T21:47:25.000Z,57.04
2018-12-22T21:50:26.847Z,56.95
2018-12-22T21:53:28.592Z,57.31
2018-12-22T21:56:30.426Z,57.45
2018-12-22T21:59:32.224Z,57.65
2018-12-22T22:02:34.082Z,57.79
2018-12-22T22:05:35.953Z,57.87
2018-12-22T22:08:37.760Z,57.86
2018-12-22T22:11:39.641Z,58.04
2018-12-22T22:14:41.620Z,58.00
2018-12-22T22:17:43.492Z,57.88
2018-12-22T22:20:45.360Z,58.26
2018-12-22T22:23:47.436Z,58.15
2018-12-22T22:26:50.134Z,58.13
2018-12-22T22:29:52.039Z,58.07
2018-12-22T22:32:53.939Z,58.24
2018-12-22T22:35:55.791Z,58.38
2018-12-22T22:38:57.645Z,58.17
2018-12-22T22:41:59.432Z,58.30
2018-12-22T22:45:01.275Z,58.17
2018-12-22T22:48:03.142Z,58.17
2018-12-22T22:51:05.013Z,58.43
2018-12-22T22:54:06.822Z,58.44
2018-12-22T22:57:08.697Z,58.65
2018-12-22T23:00:12.536Z,58.96
2018-12-22T23:03:14.498Z,59.08
2018-12-22T23:06:16.333Z,59.15
2018-12-22T23:09:18.091Z,59.03
2018-12-22T23:12:19.954Z,58.98
2018-12-22T23:15:22.017Z,59.49
2018-12-22T23:18:23.986Z,59.26
2018-12-22T23:21:25.889Z,59.69
2018-12-22T23:24:27.709Z,59.55
2018-12-22T23:27:29.507Z,59.86
2018-12-22T23:30:31.349Z,59.99
2018-12-22T23:33:33.215Z,59.99
2018-12-22T23:36:34.958Z,60.15
2018-12-22T23:39:36.745Z,60.14
2018-12-22T23:42:38.489Z,60.56
2018-12-22T23:45:40.308Z,60.67
2018-12-22T23:48:42.113Z,60.62
2018-12-22T23:51:43.887Z,60.56
2018-12-22T23:54:45.709Z,60.54
2018-12-22T23:57:47.724Z,60.55
